Aiken, TX (79221)

11:55 AM CDT on August 01, 2015 (GMT -0500)
WT_Meso | | Change Station
CLOSE
Current Station
Personal Weather Station
Location: Floydada, TX
Elevation: 3179 ft
Nearby Weather Stations

Elev 3179 ft 34.00 °N, 101.33 °W | Updated 20 minutes ago

Overcast
Overcast
73 °F
Feels Like 72 °F
N
10
Wind Variable Wind from SE
Gusts 12.0 mph

Today
High -- | Low -- °F
--% Chance of Precip.
Yesterday
High -- | Low -- °F
Precip. -- in
6:56 AM 8:46 PM
Full, 98% visible
Pressure 30.18 in
Visibility 10.0 miles
Clouds Overcast 11000 ft
Heat Index 72 °F
Dew Point 67 °F
Humidity 85%
Rainfall in
Snow Depth Not available.
UV 3 out of 12
Pollen .90 out of 12
Air Quality Not available.
Flu Activity Not available.
METAR KPVW 011635Z AUTO 15008KT 10SM OVC110 24/19 A3018 RMK AO2 T02400193

More Conditions Fewer Conditions

Pressure 30.18 in
Visibility 10.0 miles
Clouds Overcast 11000 ft
Heat Index 72 °F
Dew Point 67 °F
Humidity 85%
Rainfall in
Snow Depth Not available.
UV 3 out of 12
Pollen .90 out of 12
Air Quality Not available.
Flu Activity Not available.
METAR KPVW 011635Z AUTO 15008KT 10SM OVC110 24/19 A3018 RMK AO2 T02400193

More Conditions Fewer Conditions

Nowcast | as of 10:21 am CDT on August 1, 2015

A broken area of rain...along with embedded thunderstorms...will continue to affect the southeast Texas Panhandle into the northeast South Plains and northern rolling plains through late morning. The strongest activity will be capable of producing moderate to heavy rain...occasional cloud to ground lightning and wind gusts to 30 mph. Where the heaviest rain does fall...from near Dumont to Paducah along with grow and Chalk...rainfall rates in excess of one inch an hour will be possible...which when falling on already wet grounds...will result in flooding of low lying and poor drainage areas. Motorists should be alert for ponding of water on roadways and never drive through flooded roadways.

×

10-Day Weather Forecast

×

Almanac

Astronomy

Aug. 01, 2015 Rise Set
Actual Time
Civil Twilight
Nautical Twilight
Astronomical Twilight
Moon
Length of Visible Light
Length of Day
Tomorrow will be .
, % of the Moon is Illuminated

Today's Extremes

State Highs State Lows

Community

WunderPhotos

Upload Photos

1,842,986 photos uploaded!

WunderBlogs® & News

Nearby

Air Quality

  Air Quality AQ Index Pollutant
Not available.

Snow Depth

Station Depth Elevation

Earthquake Activity

City Distance Mag. Time & Date
Minimum magnitude displayed is 2.5.

Coastal Water Temperatures

Place Temperature

Stations

Nearby Weather Stations

Station Location Temp. Windchill Dew Point Humidity Wind Precip. Elev Updated Type